createdAt,value
2019-02-24T00:00:45.925Z,34.20
2019-02-24T00:01:45.911Z,33.90
2019-02-24T00:02:45.896Z,31.20
2019-02-24T00:03:45.916Z,29.60
2019-02-24T00:04:45.876Z,33.30
2019-02-24T00:05:45.871Z,32.40
2019-02-24T00:06:45.855Z,33.00
2019-02-24T00:07:45.853Z,31.80
2019-02-24T00:08:45.861Z,34.40
2019-02-24T00:09:45.824Z,31.50
2019-02-24T00:10:45.814Z,32.10
2019-02-24T00:11:45.807Z,33.80
2019-02-24T00:12:45.799Z,33.30
2019-02-24T00:13:45.813Z,32.70
2019-02-24T00:14:45.775Z,31.80
2019-02-24T00:15:45.764Z,33.40
2019-02-24T00:16:45.751Z,33.80
2019-02-24T00:17:45.744Z,33.30
2019-02-24T00:18:45.768Z,31.90
2019-02-24T00:19:45.725Z,32.90
2019-02-24T00:20:45.711Z,35.60
2019-02-24T00:21:45.696Z,32.70
2019-02-24T00:22:45.689Z,31.50
2019-02-24T00:23:45.704Z,32.10
2019-02-24T00:24:45.667Z,32.30
2019-02-24T00:25:45.658Z,32.00
2019-02-24T00:26:45.650Z,32.30
2019-02-24T00:27:45.636Z,32.30
2019-02-24T00:28:45.649Z,31.30
2019-02-24T00:29:45.614Z,32.30
2019-02-24T00:30:45.606Z,33.70
2019-02-24T00:31:45.600Z,33.30
2019-02-24T00:32:45.627Z,31.00
2019-02-24T00:33:45.598Z,30.90
2019-02-24T00:34:45.580Z,33.00
2019-02-24T00:35:45.558Z,31.00
2019-02-24T00:36:45.543Z,30.10
2019-02-24T00:37:45.546Z,30.80
2019-02-24T00:38:45.544Z,31.90
2019-02-24T00:39:45.510Z,32.70
2019-02-24T00:40:45.500Z,30.50
2019-02-24T00:41:45.490Z,33.40
2019-02-24T00:42:45.479Z,31.30
2019-02-24T00:43:45.492Z,31.50
2019-02-24T00:44:45.459Z,31.00
2019-02-24T00:45:45.451Z,32.00
2019-02-24T00:46:45.438Z,31.90
2019-02-24T00:47:45.424Z,30.50
2019-02-24T00:48:45.443Z,30.80
2019-02-24T00:49:45.408Z,31.40
2019-02-24T00:50:45.394Z,34.30
2019-02-24T00:51:45.387Z,32.80
2019-02-24T00:52:45.381Z,31.90
2019-02-24T00:53:45.390Z,30.20
2019-02-24T00:54:45.354Z,31.00
2019-02-24T00:55:45.341Z,30.10
2019-02-24T00:56:45.333Z,32.70
2019-02-24T00:57:45.330Z,31.50
2019-02-24T00:58:45.336Z,30.10
2019-02-24T00:59:45.301Z,30.20
2019-02-24T01:00:45.289Z,29.60
2019-02-24T01:01:45.291Z,31.70
2019-02-24T01:02:45.268Z,30.40
2019-02-24T01:03:45.282Z,30.30
2019-02-24T01:04:45.278Z,32.90
2019-02-24T01:05:45.236Z,29.50
2019-02-24T01:06:45.227Z,31.50
2019-02-24T01:07:45.216Z,31.60
2019-02-24T01:08:45.237Z,30.80
2019-02-24T01:09:45.192Z,28.80
2019-02-24T01:10:45.186Z,31.30
2019-02-24T01:11:45.173Z,30.70
2019-02-24T01:12:45.163Z,30.50
2019-02-24T01:13:45.181Z,29.90
2019-02-24T01:14:45.142Z,29.30
2019-02-24T01:15:45.134Z,30.80
2019-02-24T01:16:45.124Z,29.70
2019-02-24T01:17:45.114Z,29.90
2019-02-24T01:18:45.132Z,30.70
2019-02-24T01:19:45.089Z,30.10
2019-02-24T01:20:45.078Z,29.20
2019-02-24T01:21:45.068Z,29.60
2019-02-24T01:22:45.057Z,29.80
2019-02-24T01:23:45.070Z,28.90
2019-02-24T01:24:45.042Z,30.10
2019-02-24T01:25:45.029Z,29.60
2019-02-24T01:26:45.015Z,27.70
2019-02-24T01:27:45.020Z,29.50
2019-02-24T01:28:45.020Z,30.20
2019-02-24T01:29:44.985Z,27.80
2019-02-24T01:30:44.983Z,29.30
2019-02-24T01:31:44.960Z,29.00
2019-02-24T01:32:44.952Z,28.20
2019-02-24T01:33:45.250Z,27.70
2019-02-24T01:34:44.935Z,27.50
2019-02-24T01:35:44.923Z,32.10
2019-02-24T01:36:44.910Z,28.80
2019-02-24T01:37:44.898Z,26.50
2019-02-24T01:38:44.889Z,29.60
2019-02-24T01:39:44.911Z,29.40
2019-02-24T01:40:44.871Z,28.70
2019-02-24T01:41:44.857Z,30.10
2019-02-24T01:42:44.847Z,27.90
2019-02-24T01:43:44.832Z,30.30
2019-02-24T01:44:44.851Z,28.70
2019-02-24T01:45:44.825Z,28.70
2019-02-24T01:46:44.806Z,28.80
2019-02-24T01:47:44.804Z,29.70
2019-02-24T01:48:44.781Z,29.80
2019-02-24T01:49:44.800Z,29.10
2019-02-24T01:50:44.761Z,32.60
2019-02-24T01:51:44.753Z,28.10
2019-02-24T01:52:44.743Z,29.80
2019-02-24T01:53:44.731Z,29.70
2019-02-24T01:54:44.750Z,28.80
2019-02-24T01:55:44.717Z,29.20
2019-02-24T01:56:44.703Z,31.80
2019-02-24T01:57:44.692Z,29.60
2019-02-24T01:58:44.679Z,30.20
2019-02-24T01:59:44.699Z,28.60
2019-02-24T02:00:44.656Z,29.70
2019-02-24T02:01:44.645Z,29.70
2019-02-24T02:02:44.647Z,29.40
2019-02-24T02:03:44.628Z,31.90
2019-02-24T02:04:44.642Z,30.70
2019-02-24T02:05:44.606Z,29.40
2019-02-24T02:06:44.594Z,29.40
2019-02-24T02:07:44.583Z,29.80
2019-02-24T02:08:44.573Z,30.70
2019-02-24T02:09:44.589Z,31.00
2019-02-24T02:10:44.554Z,30.20
2019-02-24T02:11:44.544Z,31.60
2019-02-24T02:12:44.534Z,30.40
2019-02-24T02:13:44.520Z,31.20
2019-02-24T02:14:44.536Z,31.30
2019-02-24T02:15:44.499Z,29.80
2019-02-24T02:16:44.497Z,31.30
2019-02-24T02:17:44.477Z,33.00
2019-02-24T02:18:44.464Z,29.80
2019-02-24T02:19:44.485Z,31.30
2019-02-24T02:20:44.450Z,32.60
2019-02-24T02:21:44.437Z,31.90
2019-02-24T02:22:44.424Z,31.80
2019-02-24T02:23:44.414Z,28.30
2019-02-24T02:24:44.439Z,30.30
2019-02-24T02:25:44.394Z,31.10
2019-02-24T02:26:44.385Z,30.90
2019-02-24T02:27:44.377Z,33.70
2019-02-24T02:28:44.367Z,33.10
2019-02-24T02:29:44.379Z,30.60
2019-02-24T02:30:44.345Z,32.40
2019-02-24T02:31:44.334Z,30.10
2019-02-24T02:32:44.329Z,31.40
2019-02-24T02:33:44.314Z,30.70
2019-02-24T02:34:44.334Z,32.30
2019-02-24T02:35:44.288Z,32.20
2019-02-24T02:36:44.278Z,29.90
2019-02-24T02:37:44.269Z,30.90
2019-02-24T02:38:44.257Z,31.90
2019-02-24T02:39:44.276Z,31.00
2019-02-24T02:40:44.246Z,31.40
2019-02-24T02:41:44.229Z,30.40
2019-02-24T02:42:44.217Z,29.80
2019-02-24T02:43:44.212Z,28.30
2019-02-24T02:44:44.220Z,31.20
2019-02-24T02:45:44.188Z,29.20
2019-02-24T02:46:44.181Z,32.50
2019-02-24T02:47:44.172Z,30.00
2019-02-24T02:48:44.156Z,31.10
2019-02-24T02:49:44.168Z,30.20
2019-02-24T02:50:44.131Z,28.90
2019-02-24T02:51:44.127Z,29.20
2019-02-24T02:52:44.113Z,30.50
2019-02-24T02:53:44.104Z,29.40
2019-02-24T02:54:44.131Z,28.30
2019-02-24T02:55:44.083Z,28.10
2019-02-24T02:56:44.071Z,30.00
2019-02-24T02:57:44.071Z,28.10
2019-02-24T02:58:53.638Z,29.40
2019-02-24T02:59:45.061Z,29.70
2019-02-24T03:00:44.026Z,29.00
2019-02-24T03:01:44.018Z,30.30
2019-02-24T03:02:44.017Z,28.80
2019-02-24T03:03:44.003Z,30.80
2019-02-24T03:04:44.011Z,27.70
2019-02-24T03:05:43.975Z,28.30
2019-02-24T03:06:43.968Z,29.50
2019-02-24T03:07:43.953Z,27.90
2019-02-24T03:08:43.944Z,28.80
2019-02-24T03:09:43.991Z,29.80
2019-02-24T03:10:43.921Z,31.10
2019-02-24T03:11:43.913Z,31.20
2019-02-24T03:12:54.811Z,32.10
2019-02-24T03:13:43.896Z,27.90
2019-02-24T03:14:43.907Z,30.30
2019-02-24T03:15:43.884Z,29.20
2019-02-24T03:16:43.861Z,29.20
2019-02-24T03:17:43.860Z,31.20
2019-02-24T03:18:43.841Z,30.10
2019-02-24T03:19:43.835Z,30.00
2019-02-24T03:20:43.847Z,31.10
2019-02-24T03:21:43.818Z,32.20
2019-02-24T03:22:43.799Z,31.60
2019-02-24T03:23:43.795Z,30.40
2019-02-24T03:24:43.778Z,28.90
2019-02-24T03:25:43.800Z,28.60
2019-02-24T03:26:43.757Z,29.60
2019-02-24T03:27:43.754Z,31.30
2019-02-24T03:28:43.747Z,30.00
2019-02-24T03:29:43.726Z,28.90
2019-02-24T03:30:43.747Z,28.50
2019-02-24T03:31:43.705Z,30.60
2019-02-24T03:32:43.698Z,28.90
2019-02-24T03:33:44.977Z,31.20
2019-02-24T03:34:43.674Z,29.80
2019-02-24T03:35:43.690Z,30.70
2019-02-24T03:36:43.654Z,29.30
2019-02-24T03:37:43.641Z,30.70
2019-02-24T03:38:43.634Z,30.10
2019-02-24T03:39:43.625Z,28.90
2019-02-24T03:40:43.635Z,27.70
2019-02-24T03:41:43.603Z,28.60
2019-02-24T03:42:43.588Z,28.90
2019-02-24T03:43:43.579Z,29.50
2019-02-24T03:44:43.598Z,29.20
2019-02-24T03:45:43.587Z,28.10
2019-02-24T03:46:43.557Z,31.00
2019-02-24T03:47:43.541Z,28.70
2019-02-24T03:48:43.525Z,28.30
2019-02-24T03:49:43.514Z,29.20
2019-02-24T03:50:43.528Z,30.90
2019-02-24T03:51:43.503Z,27.80
2019-02-24T03:52:43.493Z,28.70
2019-02-24T03:53:43.490Z,28.10
2019-02-24T03:54:43.467Z,28.30
2019-02-24T03:55:43.476Z,30.80
2019-02-24T03:56:43.450Z,31.20
2019-02-24T03:57:43.433Z,28.60
2019-02-24T03:58:43.427Z,28.60
2019-02-24T03:59:43.418Z,29.50
2019-02-24T04:00:43.436Z,28.00
2019-02-24T04:01:43.392Z,27.30
2019-02-24T04:02:43.391Z,28.20
2019-02-24T04:03:43.371Z,28.00
2019-02-24T04:04:43.370Z,27.80
2019-02-24T04:05:43.374Z,26.50
2019-02-24T04:06:43.341Z,27.80
2019-02-24T04:07:43.330Z,27.20
2019-02-24T04:08:43.320Z,26.90
2019-02-24T04:09:43.306Z,25.00
2019-02-24T04:10:43.328Z,27.40
2019-02-24T04:11:43.289Z,28.90
2019-02-24T04:12:43.272Z,30.10
2019-02-24T04:13:43.275Z,28.70
2019-02-24T04:14:43.275Z,29.60
2019-02-24T04:15:43.278Z,27.00
2019-02-24T04:16:43.237Z,27.80
2019-02-24T04:17:43.221Z,30.90
2019-02-24T04:18:43.213Z,29.00
2019-02-24T04:19:43.214Z,28.20
2019-02-24T04:20:43.216Z,28.00
2019-02-24T04:21:43.181Z,27.10
2019-02-24T04:22:43.178Z,26.50
2019-02-24T04:23:43.172Z,26.70
2019-02-24T04:24:43.154Z,25.50
2019-02-24T04:25:43.164Z,27.00
2019-02-24T04:26:43.128Z,26.20
2019-02-24T04:27:43.122Z,24.60
2019-02-24T04:28:43.116Z,23.30
2019-02-24T04:29:43.102Z,25.70
2019-02-24T04:30:43.113Z,24.60
2019-02-24T04:31:43.084Z,22.00
2019-02-24T04:32:43.074Z,23.00
2019-02-24T04:33:43.063Z,24.20
2019-02-24T04:34:43.059Z,25.20
2019-02-24T04:35:43.062Z,23.30
2019-02-24T04:36:43.026Z,25.10
2019-02-24T04:37:43.018Z,24.10
2019-02-24T04:38:43.008Z,24.80
2019-02-24T04:39:42.992Z,25.90
2019-02-24T04:40:43.008Z,21.40
2019-02-24T04:41:42.972Z,21.40
2019-02-24T04:42:42.968Z,24.80
2019-02-24T04:43:42.958Z,24.40
2019-02-24T04:44:42.940Z,24.50
2019-02-24T04:45:42.958Z,23.70
2019-02-24T04:46:42.921Z,24.40
2019-02-24T04:47:42.910Z,22.20
2019-02-24T04:48:42.903Z,25.20
2019-02-24T04:49:42.889Z,24.30
2019-02-24T04:50:42.910Z,23.30
2019-02-24T04:51:42.872Z,21.10
2019-02-24T04:52:42.857Z,21.90
2019-02-24T04:53:42.846Z,24.40
2019-02-24T04:54:42.840Z,22.80
2019-02-24T04:55:42.854Z,25.20
2019-02-24T04:56:42.822Z,24.90
2019-02-24T04:57:42.812Z,22.10
2019-02-24T04:58:42.798Z,21.60
2019-02-24T04:59:42.787Z,21.70
2019-02-24T05:00:42.810Z,19.40
2019-02-24T05:01:42.764Z,22.10
2019-02-24T05:02:42.753Z,20.30
2019-02-24T05:03:42.756Z,17.90
2019-02-24T05:04:42.733Z,17.80
2019-02-24T05:05:42.721Z,18.30
2019-02-24T05:06:42.854Z,18.50
2019-02-24T05:07:42.701Z,19.40
2019-02-24T05:08:42.694Z,17.60
2019-02-24T05:09:42.687Z,19.70
2019-02-24T05:10:42.675Z,18.70
2019-02-24T05:11:42.688Z,19.40
2019-02-24T05:12:42.661Z,20.70
2019-02-24T05:13:42.640Z,21.90
2019-02-24T05:14:42.634Z,21.60
2019-02-24T05:15:42.624Z,19.70
2019-02-24T05:16:42.634Z,21.40
2019-02-24T05:17:42.599Z,24.00
2019-02-24T05:18:42.593Z,23.00
2019-02-24T05:19:42.576Z,19.40
2019-02-24T05:20:42.565Z,21.80
2019-02-24T05:21:42.577Z,20.40
2019-02-24T05:22:42.546Z,20.00
2019-02-24T05:23:43.125Z,21.40
2019-02-24T05:24:42.520Z,20.90
2019-02-24T05:25:42.513Z,20.90
2019-02-24T05:26:42.533Z,21.40
2019-02-24T05:27:42.496Z,20.80
2019-02-24T05:28:42.485Z,21.70
2019-02-24T05:29:45.813Z,21.40
2019-02-24T05:30:42.468Z,22.20
2019-02-24T05:31:42.493Z,21.30
2019-02-24T05:32:42.443Z,22.90
2019-02-24T05:33:42.428Z,21.50
2019-02-24T05:34:42.418Z,20.90
2019-02-24T05:35:42.413Z,21.30
2019-02-24T05:36:42.425Z,23.10
2019-02-24T05:37:42.388Z,21.20
2019-02-24T05:38:42.390Z,21.40
2019-02-24T05:39:42.364Z,21.80
2019-02-24T05:40:42.395Z,23.20
2019-02-24T05:41:42.372Z,22.00
2019-02-24T05:42:42.649Z,21.80
2019-02-24T05:43:42.327Z,21.50
2019-02-24T05:44:42.321Z,22.40
2019-02-24T05:45:42.304Z,20.40
2019-02-24T05:46:42.318Z,22.00
2019-02-24T05:47:42.289Z,20.70
2019-02-24T05:48:42.275Z,22.20
2019-02-24T05:49:42.266Z,20.90
2019-02-24T05:50:42.271Z,21.50
2019-02-24T05:51:42.264Z,22.50
2019-02-24T05:52:42.231Z,21.90
2019-02-24T05:53:42.227Z,22.40
2019-02-24T05:54:42.214Z,22.50
2019-02-24T05:55:42.202Z,21.10
2019-02-24T05:56:42.219Z,21.70
2019-02-24T05:57:42.182Z,21.80
2019-02-24T05:58:42.171Z,21.50
2019-02-24T05:59:42.164Z,22.70
2019-02-24T06:00:42.151Z,22.80
2019-02-24T06:01:42.168Z,22.30
2019-02-24T06:02:42.132Z,25.40
2019-02-24T06:03:42.118Z,22.30
2019-02-24T06:04:42.112Z,25.20
2019-02-24T06:05:42.091Z,25.40
2019-02-24T06:06:42.144Z,22.10
2019-02-24T06:07:42.080Z,24.10
2019-02-24T06:08:42.066Z,22.40
2019-02-24T06:09:42.052Z,22.10
2019-02-24T06:10:42.048Z,24.30
2019-02-24T06:11:42.066Z,24.10
2019-02-24T06:12:42.030Z,23.50
2019-02-24T06:13:42.013Z,22.90
2019-02-24T06:14:42.002Z,23.90
2019-02-24T06:15:41.992Z,22.70
2019-02-24T06:16:42.009Z,23.90
2019-02-24T06:17:41.974Z,21.90
2019-02-24T06:18:41.961Z,25.00
2019-02-24T06:19:41.951Z,24.00
2019-02-24T06:20:41.944Z,25.60
2019-02-24T06:21:41.960Z,24.80
2019-02-24T06:22:41.921Z,25.40
2019-02-24T06:23:41.910Z,28.50
2019-02-24T06:24:41.901Z,27.00
2019-02-24T06:25:41.888Z,27.40
2019-02-24T06:26:41.911Z,28.20
2019-02-24T06:27:41.870Z,25.10
2019-02-24T06:28:41.866Z,25.60
2019-02-24T06:29:41.848Z,27.50
2019-02-24T06:30:41.849Z,25.70
2019-02-24T06:31:41.850Z,26.60
2019-02-24T06:32:41.817Z,26.00
2019-02-24T06:33:41.807Z,25.20
2019-02-24T06:34:41.807Z,26.90
2019-02-24T06:35:41.814Z,28.50
2019-02-24T06:36:41.796Z,26.00
2019-02-24T06:37:41.774Z,26.60
2019-02-24T06:38:41.752Z,25.70
2019-02-24T06:39:41.751Z,27.10
2019-02-24T06:40:41.737Z,26.30
2019-02-24T06:41:41.752Z,27.10
2019-02-24T06:42:41.714Z,27.30
2019-02-24T06:43:41.708Z,26.60
2019-02-24T06:44:41.693Z,25.70
2019-02-24T06:45:41.681Z,25.60
2019-02-24T06:46:41.699Z,24.70
2019-02-24T06:47:41.688Z,25.00
2019-02-24T06:48:41.651Z,28.00
2019-02-24T06:49:41.644Z,26.60
2019-02-24T06:50:41.630Z,26.40
2019-02-24T06:51:41.623Z,26.40
2019-02-24T06:52:41.634Z,26.70
2019-02-24T06:53:41.593Z,24.10
2019-02-24T06:54:41.587Z,27.20
2019-02-24T06:55:41.573Z,26.30
2019-02-24T06:56:41.567Z,28.00
2019-02-24T06:57:41.578Z,28.50
2019-02-24T06:58:41.542Z,55.80
2019-02-24T06:59:41.532Z,33.40
2019-02-24T07:00:41.526Z,29.80
2019-02-24T07:01:41.509Z,43.10
2019-02-24T07:02:41.531Z,29.40
2019-02-24T07:03:41.494Z,28.40
2019-02-24T07:04:41.478Z,34.10
2019-02-24T07:05:41.481Z,28.70
2019-02-24T07:06:41.461Z,27.40
2019-02-24T07:07:41.477Z,25.30
2019-02-24T07:08:41.442Z,26.20
2019-02-24T07:09:41.432Z,27.40
2019-02-24T07:10:41.416Z,27.10
2019-02-24T07:11:41.410Z,25.20
2019-02-24T07:12:41.427Z,28.20
2019-02-24T07:13:41.384Z,28.40
2019-02-24T07:14:41.373Z,25.60
2019-02-24T07:15:41.369Z,25.70
2019-02-24T07:16:41.352Z,27.10
2019-02-24T07:17:41.398Z,27.70
2019-02-24T07:18:41.338Z,29.70
2019-02-24T07:19:41.322Z,27.30
2019-02-24T07:20:41.334Z,26.80
2019-02-24T07:21:41.303Z,28.80
2019-02-24T07:22:41.317Z,25.40
2019-02-24T07:23:41.281Z,26.00
2019-02-24T07:24:41.272Z,26.60
2019-02-24T07:25:41.271Z,27.70
2019-02-24T07:26:41.248Z,26.00
2019-02-24T07:27:41.262Z,27.30
2019-02-24T07:28:41.229Z,25.20
2019-02-24T07:29:41.218Z,27.30
2019-02-24T07:30:41.213Z,26.10
2019-02-24T07:31:41.196Z,25.80
2019-02-24T07:32:41.215Z,26.00
2019-02-24T07:33:41.178Z,25.00
2019-02-24T07:34:41.173Z,25.20
2019-02-24T07:35:41.160Z,26.80
2019-02-24T07:36:41.185Z,29.00
2019-02-24T07:37:41.160Z,26.60
2019-02-24T07:38:41.124Z,25.20
2019-02-24T07:39:41.133Z,26.90
2019-02-24T07:40:41.101Z,29.70
2019-02-24T07:41:41.098Z,27.50
2019-02-24T07:42:41.112Z,27.60
2019-02-24T07:43:41.069Z,25.90
2019-02-24T07:44:41.063Z,26.50
2019-02-24T07:45:41.050Z,27.30
2019-02-24T07:46:41.038Z,26.40
2019-02-24T07:47:41.062Z,25.70
2019-02-24T07:48:41.018Z,24.90
2019-02-24T07:49:41.005Z,25.50
2019-02-24T07:50:41.067Z,27.50
2019-02-24T07:51:40.984Z,27.10
2019-02-24T07:52:40.979Z,27.20
2019-02-24T07:53:40.991Z,26.00
2019-02-24T07:54:40.964Z,26.80
2019-02-24T07:55:40.943Z,27.20
2019-02-24T07:56:40.937Z,23.90
2019-02-24T07:57:40.924Z,27.50
2019-02-24T07:58:40.949Z,25.80
2019-02-24T07:59:40.905Z,24.70
2019-02-24T08:00:40.899Z,24.00
2019-02-24T08:01:42.536Z,23.90
2019-02-24T08:02:40.870Z,23.50
2019-02-24T08:03:40.892Z,23.40
2019-02-24T08:04:40.853Z,21.30
2019-02-24T08:05:40.852Z,21.80
2019-02-24T08:06:40.828Z,21.80
2019-02-24T08:07:40.869Z,22.30
2019-02-24T08:08:40.933Z,21.30
2019-02-24T08:09:40.797Z,19.00
2019-02-24T08:10:40.785Z,21.10
2019-02-24T08:11:40.773Z,20.70
2019-02-24T08:12:40.765Z,21.40
2019-02-24T08:13:40.780Z,19.60
2019-02-24T08:14:40.741Z,21.40
2019-02-24T08:15:40.734Z,19.70
2019-02-24T08:16:40.724Z,21.80
2019-02-24T08:17:40.747Z,17.90
2019-02-24T08:18:49.048Z,19.60
2019-02-24T08:19:41.692Z,19.30
2019-02-24T08:20:40.725Z,17.80
2019-02-24T08:21:40.669Z,20.20
2019-02-24T08:22:40.686Z,16.90
2019-02-24T08:23:40.680Z,21.10
2019-02-24T08:24:40.688Z,21.10
2019-02-24T08:25:40.664Z,19.00
2019-02-24T08:26:40.625Z,21.00
2019-02-24T08:27:40.610Z,18.80
2019-02-24T08:28:40.643Z,18.40
2019-02-24T08:29:40.631Z,19.80
2019-02-24T08:30:41.963Z,18.60
2019-02-24T08:31:40.599Z,20.40
2019-02-24T08:32:40.550Z,19.30
2019-02-24T08:33:40.541Z,16.70
2019-02-24T08:34:40.561Z,19.30
2019-02-24T08:35:40.527Z,17.70
2019-02-24T08:36:40.523Z,18.20
2019-02-24T08:37:40.510Z,15.90
2019-02-24T08:38:40.544Z,17.20
2019-02-24T08:39:40.518Z,14.50
2019-02-24T08:40:40.484Z,14.40
2019-02-24T08:41:40.468Z,13.60
2019-02-24T08:42:40.459Z,15.00
2019-02-24T08:43:40.450Z,14.50
2019-02-24T08:44:40.490Z,14.40
2019-02-24T08:45:40.436Z,14.40
2019-02-24T08:46:40.408Z,13.10
2019-02-24T08:47:40.404Z,14.00
2019-02-24T08:48:40.387Z,13.50
2019-02-24T08:49:40.411Z,13.40
2019-02-24T08:50:40.368Z,12.80
2019-02-24T08:51:40.360Z,12.80
2019-02-24T08:52:40.343Z,12.50
2019-02-24T08:53:40.337Z,12.50
2019-02-24T08:54:40.376Z,13.30
2019-02-24T08:55:40.325Z,13.50
2019-02-24T08:56:40.303Z,13.30
2019-02-24T08:57:40.291Z,12.40
2019-02-24T08:58:40.282Z,13.20
2019-02-24T08:59:40.294Z,10.30
2019-02-24T09:00:40.275Z,14.40
2019-02-24T09:01:40.246Z,11.40
2019-02-24T09:02:40.251Z,12.50
2019-02-24T09:03:40.257Z,10.60
2019-02-24T09:04:40.247Z,8.70
2019-02-24T09:05:40.209Z,8.60
2019-02-24T09:06:40.215Z,13.80
2019-02-24T09:07:40.174Z,13.30
2019-02-24T09:08:40.177Z,15.10
2019-02-24T09:09:40.218Z,16.80
2019-02-24T09:10:40.159Z,15.70
2019-02-24T09:11:40.155Z,15.10
2019-02-24T09:12:40.139Z,16.90
2019-02-24T09:13:40.437Z,15.70
2019-02-24T09:14:40.101Z,15.90
2019-02-24T09:15:49.371Z,14.20
2019-02-24T09:16:40.080Z,16.80
2019-02-24T09:17:40.075Z,16.60
2019-02-24T09:18:40.060Z,18.20
2019-02-24T09:19:40.063Z,18.00
2019-02-24T09:20:40.092Z,16.50
2019-02-24T09:21:40.037Z,17.20
2019-02-24T09:22:40.024Z,16.80
2019-02-24T09:23:40.042Z,17.20
2019-02-24T09:24:40.012Z,18.60
2019-02-24T09:25:40.020Z,18.10
2019-02-24T09:26:39.982Z,18.60
2019-02-24T09:27:39.966Z,16.40
2019-02-24T09:28:39.962Z,17.40
2019-02-24T09:29:39.955Z,17.90
2019-02-24T09:30:41.674Z,16.70
2019-02-24T09:31:39.919Z,18.30
2019-02-24T09:32:39.924Z,15.30
2019-02-24T09:33:39.919Z,15.60
2019-02-24T09:34:39.906Z,16.00
2019-02-24T09:35:39.921Z,17.70
2019-02-24T09:36:39.878Z,14.70
2019-02-24T09:37:39.893Z,16.60
2019-02-24T09:38:39.867Z,14.60
2019-02-24T09:39:39.840Z,15.00
2019-02-24T09:40:39.853Z,15.00
2019-02-24T09:41:39.818Z,14.20
2019-02-24T09:42:39.804Z,13.30
2019-02-24T09:43:39.802Z,15.00
2019-02-24T09:44:39.787Z,15.80
2019-02-24T09:45:39.806Z,13.70
2019-02-24T09:46:39.765Z,13.30
2019-02-24T09:47:46.370Z,13.60
2019-02-24T09:48:40.740Z,15.40
2019-02-24T09:49:39.735Z,12.40
2019-02-24T09:50:39.744Z,12.40
2019-02-24T09:51:39.708Z,15.60
2019-02-24T09:52:39.701Z,15.00
2019-02-24T09:53:39.687Z,13.90
2019-02-24T09:54:39.675Z,14.00
2019-02-24T09:55:39.695Z,13.30
2019-02-24T09:56:39.659Z,13.70
2019-02-24T09:57:39.644Z,13.30
2019-02-24T09:58:39.669Z,13.50
2019-02-24T09:59:39.631Z,14.10
2019-02-24T10:00:39.641Z,13.00
2019-02-24T10:01:39.611Z,14.50
2019-02-24T10:02:39.598Z,13.40
2019-02-24T10:03:39.587Z,10.00
2019-02-24T10:04:39.572Z,8.80
2019-02-24T10:05:39.589Z,8.70
2019-02-24T10:06:39.555Z,8.70
2019-02-24T10:07:39.541Z,9.50
2019-02-24T10:08:39.527Z,8.30
2019-02-24T10:09:39.519Z,8.20
2019-02-24T10:10:39.536Z,9.20
2019-02-24T10:11:39.503Z,7.80
2019-02-24T10:12:39.489Z,8.00
2019-02-24T10:13:39.480Z,8.10
2019-02-24T10:14:39.474Z,8.90
2019-02-24T10:15:39.482Z,9.40
2019-02-24T10:16:39.460Z,9.40
2019-02-24T10:17:39.437Z,8.40
2019-02-24T10:18:39.423Z,12.80
2019-02-24T10:19:39.425Z,12.60
2019-02-24T10:20:39.433Z,10.80
2019-02-24T10:21:39.392Z,13.10
2019-02-24T10:22:39.383Z,11.90
2019-02-24T10:23:39.378Z,11.50
2019-02-24T10:24:39.360Z,11.70
2019-02-24T10:25:39.370Z,11.80
2019-02-24T10:26:39.342Z,11.10
2019-02-24T10:27:39.332Z,12.50
2019-02-24T10:28:39.304Z,11.40
2019-02-24T10:29:39.311Z,12.50
2019-02-24T10:30:39.326Z,11.30
2019-02-24T10:31:39.278Z,11.70
2019-02-24T10:32:39.272Z,12.10
2019-02-24T10:33:39.261Z,12.10
2019-02-24T10:34:39.250Z,10.40
2019-02-24T10:35:39.265Z,12.10
2019-02-24T10:36:39.232Z,11.70
2019-02-24T10:37:39.223Z,11.80
2019-02-24T10:38:39.211Z,10.70
2019-02-24T10:39:39.199Z,11.10
2019-02-24T10:40:39.209Z,11.10
2019-02-24T10:41:39.178Z,10.10
2019-02-24T10:42:39.163Z,11.40
2019-02-24T10:43:39.151Z,12.40
2019-02-24T10:44:39.144Z,14.20
2019-02-24T10:45:39.155Z,12.10
2019-02-24T10:46:39.116Z,13.90
2019-02-24T10:47:39.109Z,10.90
2019-02-24T10:48:39.103Z,11.70
2019-02-24T10:49:39.086Z,11.20
2019-02-24T10:50:39.115Z,13.90
2019-02-24T10:51:39.075Z,12.30
2019-02-24T10:52:39.056Z,10.30
2019-02-24T10:53:39.046Z,11.10
2019-02-24T10:54:39.036Z,10.60
2019-02-24T10:55:39.023Z,12.20
2019-02-24T10:56:39.040Z,12.40
2019-02-24T10:57:39.003Z,12.00
2019-02-24T10:58:38.990Z,12.00
2019-02-24T10:59:38.990Z,10.70
2019-02-24T11:00:39.048Z,10.80
2019-02-24T11:01:38.990Z,10.20
2019-02-24T11:02:38.944Z,12.30
2019-02-24T11:03:38.946Z,11.40
2019-02-24T11:04:38.929Z,11.00
2019-02-24T11:05:38.917Z,12.80
2019-02-24T11:06:38.937Z,11.30
2019-02-24T11:07:38.896Z,12.10
2019-02-24T11:08:38.935Z,11.60
2019-02-24T11:09:38.886Z,12.10
2019-02-24T11:10:38.879Z,11.10
2019-02-24T11:11:38.884Z,12.00
2019-02-24T11:12:38.862Z,10.80
2019-02-24T11:13:38.846Z,11.80
2019-02-24T11:14:38.827Z,11.30
2019-02-24T11:15:38.814Z,11.50
2019-02-24T11:16:38.840Z,11.60
2019-02-24T11:17:38.811Z,11.30
2019-02-24T11:18:38.793Z,11.50
2019-02-24T11:19:38.779Z,12.30
2019-02-24T11:20:38.773Z,10.60
2019-02-24T11:21:38.786Z,12.80
2019-02-24T11:22:38.757Z,9.80
2019-02-24T11:23:38.740Z,11.40
2019-02-24T11:24:38.725Z,11.70
2019-02-24T11:25:38.721Z,10.00
2019-02-24T11:26:38.725Z,10.40
2019-02-24T11:27:38.700Z,10.60
2019-02-24T11:28:38.688Z,12.20
2019-02-24T11:29:38.676Z,11.60
2019-02-24T11:30:38.729Z,9.30
2019-02-24T11:31:38.738Z,10.30
2019-02-24T11:32:38.644Z,11.40
2019-02-24T11:33:38.656Z,10.20
2019-02-24T11:34:38.654Z,10.60
2019-02-24T11:35:38.625Z,10.20
2019-02-24T11:36:38.948Z,9.10
2019-02-24T11:37:38.594Z,9.60
2019-02-24T11:38:38.589Z,9.80
2019-02-24T11:39:38.585Z,11.30
2019-02-24T11:40:38.568Z,9.00
2019-02-24T11:41:38.577Z,9.40
2019-02-24T11:42:38.535Z,11.00
2019-02-24T11:43:38.531Z,8.40
2019-02-24T11:44:38.516Z,10.40
2019-02-24T11:45:38.520Z,9.50
2019-02-24T11:46:38.606Z,9.40
2019-02-24T11:47:38.482Z,10.80
2019-02-24T11:48:38.467Z,11.20
2019-02-24T11:49:38.464Z,14.20
2019-02-24T11:50:38.438Z,10.20
2019-02-24T11:51:39.915Z,10.00
2019-02-24T11:52:38.488Z,11.40
2019-02-24T11:53:38.410Z,9.00
2019-02-24T11:54:38.404Z,10.40
2019-02-24T11:55:38.391Z,10.60
2019-02-24T11:56:38.409Z,10.20
2019-02-24T11:57:38.696Z,9.30
2019-02-24T11:58:38.357Z,9.70
2019-02-24T11:59:38.341Z,9.50
2019-02-24T12:00:38.333Z,10.10
2019-02-24T12:01:47.104Z,10.40
2019-02-24T12:02:39.303Z,9.60
2019-02-24T12:03:38.296Z,10.10
2019-02-24T12:04:38.287Z,8.80
2019-02-24T12:05:38.276Z,10.40
2019-02-24T12:06:38.300Z,8.60
2019-02-24T12:07:38.257Z,10.60
2019-02-24T12:08:38.258Z,9.40
2019-02-24T12:09:38.236Z,9.80
2019-02-24T12:10:38.245Z,8.90
2019-02-24T12:11:38.242Z,9.30
2019-02-24T12:12:38.208Z,8.00
2019-02-24T12:13:38.201Z,7.80
2019-02-24T12:14:38.188Z,8.50
2019-02-24T12:15:38.167Z,8.50
2019-02-24T12:16:38.184Z,8.70
2019-02-24T12:17:38.170Z,7.30
2019-02-24T12:18:38.139Z,6.90
2019-02-24T12:19:38.133Z,7.70
2019-02-24T12:20:38.115Z,6.70
2019-02-24T12:21:38.133Z,7.80
2019-02-24T12:22:38.104Z,7.20
2019-02-24T12:23:38.090Z,6.50
2019-02-24T12:24:38.081Z,7.80
2019-02-24T12:25:38.065Z,8.60
2019-02-24T12:26:38.090Z,9.60
2019-02-24T12:27:38.040Z,8.20
2019-02-24T12:28:38.039Z,8.20
2019-02-24T12:29:38.024Z,8.90
2019-02-24T12:30:38.011Z,7.40
2019-02-24T12:31:38.095Z,7.80
2019-02-24T12:32:37.992Z,7.60
2019-02-24T12:33:37.998Z,7.60
2019-02-24T12:34:37.971Z,7.60
2019-02-24T12:35:37.965Z,8.30
2019-02-24T12:36:37.950Z,10.30
2019-02-24T12:37:37.975Z,9.60
2019-02-24T12:38:37.923Z,8.60
2019-02-24T12:39:37.918Z,8.90
2019-02-24T12:40:37.910Z,11.00
2019-02-24T12:41:37.898Z,11.00
2019-02-24T12:42:37.906Z,26.50
2019-02-24T12:43:37.872Z,7.70
2019-02-24T12:44:37.870Z,8.80
2019-02-24T12:45:37.857Z,6.60
2019-02-24T12:46:37.860Z,6.70
2019-02-24T12:47:37.867Z,7.00
2019-02-24T12:48:37.878Z,6.60
2019-02-24T12:49:37.817Z,6.90
2019-02-24T12:50:37.809Z,6.50
2019-02-24T12:51:37.791Z,6.60
2019-02-24T12:52:37.821Z,7.60
2019-02-24T12:53:37.773Z,8.90
2019-02-24T12:54:37.758Z,7.70
2019-02-24T12:55:37.779Z,6.70